sensor_id;sensor_type;location;lat;lon;timestamp;temperature;humidity
4453;DHT22;2239;48.152;11.584;2022-09-29T00:01:47;8.10;99.90
4453;DHT22;2239;48.152;11.584;2022-09-29T00:04:13;8.10;99.90
4453;DHT22;2239;48.152;11.584;2022-09-29T00:06:38;8.10;99.90
4453;DHT22;2239;48.152;11.584;2022-09-29T00:09:04;8.10;99.90
4453;DHT22;2239;48.152;11.584;2022-09-29T00:11:30;8.10;99.90
4453;DHT22;2239;48.152;11.584;2022-09-29T00:13:58;8.10;99.90
4453;DHT22;2239;48.152;11.584;2022-09-29T00:16:23;8.10;99.90
4453;DHT22;2239;48.152;11.584;2022-09-29T00:18:49;8.10;99.90
4453;DHT22;2239;48.152;11.584;2022-09-29T00:21:18;8.20;99.90
4453;DHT22;2239;48.152;11.584;2022-09-29T00:23:45;8.10;99.90
4453;DHT22;2239;48.152;11.584;2022-09-29T00:26:17;8.10;99.90
4453;DHT22;2239;48.152;11.584;2022-09-29T00:28:52;8.10;99.90
4453;DHT22;2239;48.152;11.584;2022-09-29T00:31:20;8.20;99.90
4453;DHT22;2239;48.152;11.584;2022-09-29T00:33:46;8.10;99.90
4453;DHT22;2239;48.152;11.584;2022-09-29T00:36:14;8.20;99.90
4453;DHT22;2239;48.152;11.584;2022-09-29T00:38:41;8.20;99.90
4453;DHT22;2239;48.152;11.584;2022-09-29T00:41:11;8.20;99.90
4453;DHT22;2239;48.152;11.584;2022-09-29T00:44:01;8.20;99.90
4453;DHT22;2239;48.152;11.584;2022-09-29T00:49:38;8.20;99.90
4453;DHT22;2239;48.152;11.584;2022-09-29T00:52:34;8.20;99.90
4453;DHT22;2239;48.152;11.584;2022-09-29T00:55:09;8.20;99.90
4453;DHT22;2239;48.152;11.584;2022-09-29T00:57:43;8.20;99.90
4453;DHT22;2239;48.152;11.584;2022-09-29T01:00:14;8.20;99.90
4453;DHT22;2239;48.152;11.584;2022-09-29T01:02:44;8.20;99.90
4453;DHT22;2239;48.152;11.584;2022-09-29T01:05:14;8.10;99.90
4453;DHT22;2239;48.152;11.584;2022-09-29T01:07:42;8.10;99.90
4453;DHT22;2239;48.152;11.584;2022-09-29T01:10:09;8.00;99.90
4453;DHT22;2239;48.152;11.584;2022-09-29T01:12:35;8.00;99.90
4453;DHT22;2239;48.152;11.584;2022-09-29T01:15:01;8.00;99.90
4453;DHT22;2239;48.152;11.584;2022-09-29T01:17:27;7.90;99.90
4453;DHT22;2239;48.152;11.584;2022-09-29T01:20:12;7.90;99.90
4453;DHT22;2239;48.152;11.584;2022-09-29T01:23:16;7.90;99.90
4453;DHT22;2239;48.152;11.584;2022-09-29T01:34:23;8.10;99.90
4453;DHT22;2239;48.152;11.584;2022-09-29T01:37:36;8.10;99.90
4453;DHT22;2239;48.152;11.584;2022-09-29T01:40:13;8.10;99.90
4453;DHT22;2239;48.152;11.584;2022-09-29T01:42:47;8.10;99.90
4453;DHT22;2239;48.152;11.584;2022-09-29T01:45:27;8.10;99.90
4453;DHT22;2239;48.152;11.584;2022-09-29T01:47:56;8.10;99.90
4453;DHT22;2239;48.152;11.584;2022-09-29T01:50:27;8.10;99.90
4453;DHT22;2239;48.152;11.584;2022-09-29T01:53:00;8.00;99.90
4453;DHT22;2239;48.152;11.584;2022-09-29T01:55:29;8.00;99.90
4453;DHT22;2239;48.152;11.584;2022-09-29T01:58:02;7.90;99.90
4453;DHT22;2239;48.152;11.584;2022-09-29T02:00:31;8.00;99.90
4453;DHT22;2239;48.152;11.584;2022-09-29T02:03:08;8.00;99.90
4453;DHT22;2239;48.152;11.584;2022-09-29T02:05:37;7.90;99.90
4453;DHT22;2239;48.152;11.584;2022-09-29T02:10:48;7.90;99.90
4453;DHT22;2239;48.152;11.584;2022-09-29T02:13:15;7.90;99.90
4453;DHT22;2239;48.152;11.584;2022-09-29T02:15:45;7.90;99.90
4453;DHT22;2239;48.152;11.584;2022-09-29T02:18:27;7.90;99.90
4453;DHT22;2239;48.152;11.584;2022-09-29T02:20:54;8.00;99.90
4453;DHT22;2239;48.152;11.584;2022-09-29T02:23:19;7.90;99.90
4453;DHT22;2239;48.152;11.584;2022-09-29T02:25:46;8.00;99.90
4453;DHT22;2239;48.152;11.584;2022-09-29T02:28:13;8.10;99.90
4453;DHT22;2239;48.152;11.584;2022-09-29T02:30:39;8.00;99.90
4453;DHT22;2239;48.152;11.584;2022-09-29T02:33:05;8.00;99.90
4453;DHT22;2239;48.152;11.584;2022-09-29T02:38:42;7.90;99.90
4453;DHT22;2239;48.152;11.584;2022-09-29T02:41:21;7.90;99.90
4453;DHT22;2239;48.152;11.584;2022-09-29T02:44:17;7.90;99.90
4453;DHT22;2239;48.152;11.584;2022-09-29T02:46:53;7.90;99.90
4453;DHT22;2239;48.152;11.584;2022-09-29T02:54:58;7.90;99.90
4453;DHT22;2239;48.152;11.584;2022-09-29T03:00:07;7.90;99.90
4453;DHT22;2239;48.152;11.584;2022-09-29T03:02:35;7.90;99.90
4453;DHT22;2239;48.152;11.584;2022-09-29T03:05:04;7.90;99.90
4453;DHT22;2239;48.152;11.584;2022-09-29T03:07:30;7.90;99.90
4453;DHT22;2239;48.152;11.584;2022-09-29T03:09:55;7.90;99.90
4453;DHT22;2239;48.152;11.584;2022-09-29T03:12:22;7.90;99.90
4453;DHT22;2239;48.152;11.584;2022-09-29T03:14:48;7.90;99.90
4453;DHT22;2239;48.152;11.584;2022-09-29T03:17:13;7.90;99.90
4453;DHT22;2239;48.152;11.584;2022-09-29T03:19:39;7.90;99.90
4453;DHT22;2239;48.152;11.584;2022-09-29T03:22:05;7.90;99.90
4453;DHT22;2239;48.152;11.584;2022-09-29T03:24:30;7.80;99.90
4453;DHT22;2239;48.152;11.584;2022-09-29T03:26:57;7.90;99.90
4453;DHT22;2239;48.152;11.584;2022-09-29T03:29:23;7.90;99.90
4453;DHT22;2239;48.152;11.584;2022-09-29T03:31:48;7.80;99.90
4453;DHT22;2239;48.152;11.584;2022-09-29T03:34:14;7.80;99.90
4453;DHT22;2239;48.152;11.584;2022-09-29T03:36:40;7.80;99.90
4453;DHT22;2239;48.152;11.584;2022-09-29T03:39:08;7.80;99.90
4453;DHT22;2239;48.152;11.584;2022-09-29T03:41:33;7.90;99.90
4453;DHT22;2239;48.152;11.584;2022-09-29T03:43:59;7.80;99.90
4453;DHT22;2239;48.152;11.584;2022-09-29T03:46:25;7.90;99.90
4453;DHT22;2239;48.152;11.584;2022-09-29T03:48:50;8.00;99.90
4453;DHT22;2239;48.152;11.584;2022-09-29T03:51:17;7.90;99.90
4453;DHT22;2239;48.152;11.584;2022-09-29T03:53:43;7.90;99.90
4453;DHT22;2239;48.152;11.584;2022-09-29T03:56:09;8.00;99.90
4453;DHT22;2239;48.152;11.584;2022-09-29T03:58:34;7.90;99.90
4453;DHT22;2239;48.152;11.584;2022-09-29T04:01:00;7.90;99.90
4453;DHT22;2239;48.152;11.584;2022-09-29T04:03:28;8.00;99.90
4453;DHT22;2239;48.152;11.584;2022-09-29T04:05:54;8.00;99.90
4453;DHT22;2239;48.152;11.584;2022-09-29T04:08:19;8.00;99.90
4453;DHT22;2239;48.152;11.584;2022-09-29T04:10:46;8.00;99.90
4453;DHT22;2239;48.152;11.584;2022-09-29T04:13:12;8.00;99.90
4453;DHT22;2239;48.152;11.584;2022-09-29T04:15:38;8.00;99.90
4453;DHT22;2239;48.152;11.584;2022-09-29T04:18:04;8.00;99.90
4453;DHT22;2239;48.152;11.584;2022-09-29T04:20:30;8.00;99.90
4453;DHT22;2239;48.152;11.584;2022-09-29T04:22:57;8.00;99.90
4453;DHT22;2239;48.152;11.584;2022-09-29T04:25:22;8.10;99.90
4453;DHT22;2239;48.152;11.584;2022-09-29T04:27:48;8.10;99.90
4453;DHT22;2239;48.152;11.584;2022-09-29T04:30:14;8.10;99.90
4453;DHT22;2239;48.152;11.584;2022-09-29T04:32:40;8.10;99.90
4453;DHT22;2239;48.152;11.584;2022-09-29T04:35:06;8.10;99.90
4453;DHT22;2239;48.152;11.584;2022-09-29T04:37:33;8.10;99.90
4453;DHT22;2239;48.152;11.584;2022-09-29T04:39:59;8.10;99.90
4453;DHT22;2239;48.152;11.584;2022-09-29T04:42:25;8.10;99.90
4453;DHT22;2239;48.152;11.584;2022-09-29T04:44:50;7.90;99.90
4453;DHT22;2239;48.152;11.584;2022-09-29T04:47:16;8.00;99.90
4453;DHT22;2239;48.152;11.584;2022-09-29T04:49:41;8.00;99.90
4453;DHT22;2239;48.152;11.584;2022-09-29T04:52:10;8.00;99.90
4453;DHT22;2239;48.152;11.584;2022-09-29T04:54:36;8.00;99.90
4453;DHT22;2239;48.152;11.584;2022-09-29T04:57:02;8.00;99.90
4453;DHT22;2239;48.152;11.584;2022-09-29T04:59:27;8.00;99.90
4453;DHT22;2239;48.152;11.584;2022-09-29T05:01:53;8.00;99.90
4453;DHT22;2239;48.152;11.584;2022-09-29T05:04:19;8.00;99.90
4453;DHT22;2239;48.152;11.584;2022-09-29T05:06:45;8.10;99.90
4453;DHT22;2239;48.152;11.584;2022-09-29T05:09:11;8.10;99.90
4453;DHT22;2239;48.152;11.584;2022-09-29T05:11:36;8.10;99.90
4453;DHT22;2239;48.152;11.584;2022-09-29T05:14:03;8.10;99.90
4453;DHT22;2239;48.152;11.584;2022-09-29T05:16:29;8.10;99.90
4453;DHT22;2239;48.152;11.584;2022-09-29T05:18:55;8.10;99.90
4453;DHT22;2239;48.152;11.584;2022-09-29T05:21:21;8.10;99.90
4453;DHT22;2239;48.152;11.584;2022-09-29T05:23:46;8.10;99.90
4453;DHT22;2239;48.152;11.584;2022-09-29T05:26:12;8.10;99.90
4453;DHT22;2239;48.152;11.584;2022-09-29T05:28:42;8.00;99.90
4453;DHT22;2239;48.152;11.584;2022-09-29T05:31:09;8.00;99.90
4453;DHT22;2239;48.152;11.584;2022-09-29T05:33:35;8.00;99.90
4453;DHT22;2239;48.152;11.584;2022-09-29T05:36:04;8.00;99.90
4453;DHT22;2239;48.152;11.584;2022-09-29T05:38:32;8.10;99.90
4453;DHT22;2239;48.152;11.584;2022-09-29T05:40:57;8.10;99.90
4453;DHT22;2239;48.152;11.584;2022-09-29T05:43:28;8.10;99.90
4453;DHT22;2239;48.152;11.584;2022-09-29T05:46:06;8.10;99.90
4453;DHT22;2239;48.152;11.584;2022-09-29T05:48:31;8.10;99.90
4453;DHT22;2239;48.152;11.584;2022-09-29T05:50:58;8.10;99.90
4453;DHT22;2239;48.152;11.584;2022-09-29T05:53:24;8.10;99.90
4453;DHT22;2239;48.152;11.584;2022-09-29T05:55:50;8.10;99.90
4453;DHT22;2239;48.152;11.584;2022-09-29T05:58:15;8.10;99.90
4453;DHT22;2239;48.152;11.584;2022-09-29T06:00:41;8.10;99.90
4453;DHT22;2239;48.152;11.584;2022-09-29T06:03:07;8.10;99.90
4453;DHT22;2239;48.152;11.584;2022-09-29T06:05:36;8.10;99.90
4453;DHT22;2239;48.152;11.584;2022-09-29T06:08:02;8.10;99.90
4453;DHT22;2239;48.152;11.584;2022-09-29T06:10:28;8.10;99.90
4453;DHT22;2239;48.152;11.584;2022-09-29T06:12:53;8.10;99.90
4453;DHT22;2239;48.152;11.584;2022-09-29T06:15:19;8.10;99.90
4453;DHT22;2239;48.152;11.584;2022-09-29T06:17:44;8.10;99.90
4453;DHT22;2239;48.152;11.584;2022-09-29T06:20:10;8.20;99.90
4453;DHT22;2239;48.152;11.584;2022-09-29T06:22:36;8.30;99.90
4453;DHT22;2239;48.152;11.584;2022-09-29T06:25:02;8.40;99.90
4453;DHT22;2239;48.152;11.584;2022-09-29T06:27:28;8.40;99.90
4453;DHT22;2239;48.152;11.584;2022-09-29T06:29:53;8.40;99.90
4453;DHT22;2239;48.152;11.584;2022-09-29T06:32:19;8.40;99.90
4453;DHT22;2239;48.152;11.584;2022-09-29T06:34:44;8.50;99.90
4453;DHT22;2239;48.152;11.584;2022-09-29T06:37:28;8.50;99.90
4453;DHT22;2239;48.152;11.584;2022-09-29T06:40:05;8.60;99.90
4453;DHT22;2239;48.152;11.584;2022-09-29T06:42:30;8.70;99.90
4453;DHT22;2239;48.152;11.584;2022-09-29T06:44:56;8.70;99.90
4453;DHT22;2239;48.152;11.584;2022-09-29T06:47:22;8.80;99.90
4453;DHT22;2239;48.152;11.584;2022-09-29T06:49:47;8.90;99.90
4453;DHT22;2239;48.152;11.584;2022-09-29T06:52:15;8.90;99.90
4453;DHT22;2239;48.152;11.584;2022-09-29T06:54:40;9.00;99.90
4453;DHT22;2239;48.152;11.584;2022-09-29T06:57:06;9.00;99.90
4453;DHT22;2239;48.152;11.584;2022-09-29T06:59:31;9.10;99.90
4453;DHT22;2239;48.152;11.584;2022-09-29T07:01:57;9.10;99.90
4453;DHT22;2239;48.152;11.584;2022-09-29T07:04:23;9.20;99.90
4453;DHT22;2239;48.152;11.584;2022-09-29T07:06:49;9.20;99.90
4453;DHT22;2239;48.152;11.584;2022-09-29T07:09:15;9.30;99.90
4453;DHT22;2239;48.152;11.584;2022-09-29T07:11:42;9.30;99.90
4453;DHT22;2239;48.152;11.584;2022-09-29T07:14:19;9.30;99.90
4453;DHT22;2239;48.152;11.584;2022-09-29T07:16:46;9.40;99.90
4453;DHT22;2239;48.152;11.584;2022-09-29T07:19:12;9.40;99.90
4453;DHT22;2239;48.152;11.584;2022-09-29T07:21:38;9.40;99.90
4453;DHT22;2239;48.152;11.584;2022-09-29T07:24:04;9.40;99.90
4453;DHT22;2239;48.152;11.584;2022-09-29T07:26:29;9.40;99.90
4453;DHT22;2239;48.152;11.584;2022-09-29T07:28:55;9.50;99.90
4453;DHT22;2239;48.152;11.584;2022-09-29T07:31:21;9.50;99.90
4453;DHT22;2239;48.152;11.584;2022-09-29T07:33:48;9.50;99.90
4453;DHT22;2239;48.152;11.584;2022-09-29T07:36:17;9.60;99.90
4453;DHT22;2239;48.152;11.584;2022-09-29T07:38:47;9.60;99.90
4453;DHT22;2239;48.152;11.584;2022-09-29T07:41:13;9.60;99.90
4453;DHT22;2239;48.152;11.584;2022-09-29T07:43:39;9.50;99.90
4453;DHT22;2239;48.152;11.584;2022-09-29T07:46:05;9.50;99.90
4453;DHT22;2239;48.152;11.584;2022-09-29T07:48:32;9.50;99.90
4453;DHT22;2239;48.152;11.584;2022-09-29T07:51:10;9.50;99.90
4453;DHT22;2239;48.152;11.584;2022-09-29T07:53:36;9.60;99.90
4453;DHT22;2239;48.152;11.584;2022-09-29T07:56:13;9.60;99.90
4453;DHT22;2239;48.152;11.584;2022-09-29T07:58:39;9.60;99.90
4453;DHT22;2239;48.152;11.584;2022-09-29T08:01:08;9.70;99.90
4453;DHT22;2239;48.152;11.584;2022-09-29T08:03:35;9.80;99.90
4453;DHT22;2239;48.152;11.584;2022-09-29T08:06:01;9.80;99.90
4453;DHT22;2239;48.152;11.584;2022-09-29T08:08:28;9.90;99.90
4453;DHT22;2239;48.152;11.584;2022-09-29T08:11:05;9.90;99.90
4453;DHT22;2239;48.152;11.584;2022-09-29T08:13:31;10.10;99.90
4453;DHT22;2239;48.152;11.584;2022-09-29T08:16:00;10.30;99.90
4453;DHT22;2239;48.152;11.584;2022-09-29T08:18:27;10.40;99.90
4453;DHT22;2239;48.152;11.584;2022-09-29T08:20:52;10.50;99.90
4453;DHT22;2239;48.152;11.584;2022-09-29T08:23:19;10.50;99.90
4453;DHT22;2239;48.152;11.584;2022-09-29T08:25:44;10.50;99.90
4453;DHT22;2239;48.152;11.584;2022-09-29T08:28:10;10.50;99.90
4453;DHT22;2239;48.152;11.584;2022-09-29T08:30:36;10.50;99.90
4453;DHT22;2239;48.152;11.584;2022-09-29T08:33:03;10.60;99.90
4453;DHT22;2239;48.152;11.584;2022-09-29T08:35:28;10.60;99.90
4453;DHT22;2239;48.152;11.584;2022-09-29T08:37:54;10.60;99.90
4453;DHT22;2239;48.152;11.584;2022-09-29T08:40:27;10.50;99.90
4453;DHT22;2239;48.152;11.584;2022-09-29T08:43:07;10.40;99.90
4453;DHT22;2239;48.152;11.584;2022-09-29T08:45:46;10.40;99.90
4453;DHT22;2239;48.152;11.584;2022-09-29T08:48:19;10.30;99.90
4453;DHT22;2239;48.152;11.584;2022-09-29T08:50:50;10.30;99.90
4453;DHT22;2239;48.152;11.584;2022-09-29T08:53:21;10.40;99.90
4453;DHT22;2239;48.152;11.584;2022-09-29T08:56:02;10.50;99.90
4453;DHT22;2239;48.152;11.584;2022-09-29T08:58:28;10.40;99.90
4453;DHT22;2239;48.152;11.584;2022-09-29T09:12:16;10.50;99.90
4453;DHT22;2239;48.152;11.584;2022-09-29T09:25:43;10.70;99.90
4453;DHT22;2239;48.152;11.584;2022-09-29T09:28:16;10.70;99.90
4453;DHT22;2239;48.152;11.584;2022-09-29T09:31:39;10.80;99.90
4453;DHT22;2239;48.152;11.584;2022-09-29T09:34:00;10.80;99.90
4453;DHT22;2239;48.152;11.584;2022-09-29T09:38:58;10.70;99.90
4453;DHT22;2239;48.152;11.584;2022-09-29T09:41:27;10.60;99.90
4453;DHT22;2239;48.152;11.584;2022-09-29T09:43:58;10.50;99.90
4453;DHT22;2239;48.152;11.584;2022-09-29T09:46:35;10.60;99.90
4453;DHT22;2239;48.152;11.584;2022-09-29T09:49:22;10.50;99.90
4453;DHT22;2239;48.152;11.584;2022-09-29T09:52:03;10.60;99.90
4453;DHT22;2239;48.152;11.584;2022-09-29T09:55:08;10.70;99.90
4453;DHT22;2239;48.152;11.584;2022-09-29T10:00:21;10.70;99.90
4453;DHT22;2239;48.152;11.584;2022-09-29T10:02:49;10.70;99.90
4453;DHT22;2239;48.152;11.584;2022-09-29T10:05:18;10.70;99.90
4453;DHT22;2239;48.152;11.584;2022-09-29T10:07:44;10.70;99.90
4453;DHT22;2239;48.152;11.584;2022-09-29T10:10:22;10.70;99.90
4453;DHT22;2239;48.152;11.584;2022-09-29T10:13:02;10.70;99.90
4453;DHT22;2239;48.152;11.584;2022-09-29T10:18:25;10.60;99.90
4453;DHT22;2239;48.152;11.584;2022-09-29T10:20:52;10.60;99.90
4453;DHT22;2239;48.152;11.584;2022-09-29T10:23:36;10.60;99.90
4453;DHT22;2239;48.152;11.584;2022-09-29T10:26:13;10.70;99.90
4453;DHT22;2239;48.152;11.584;2022-09-29T10:29:42;10.70;99.90
4453;DHT22;2239;48.152;11.584;2022-09-29T10:34:34;10.80;99.90
4453;DHT22;2239;48.152;11.584;2022-09-29T10:37:16;10.80;99.90
4453;DHT22;2239;48.152;11.584;2022-09-29T10:39:44;10.80;99.90
4453;DHT22;2239;48.152;11.584;2022-09-29T10:42:34;10.70;99.90
4453;DHT22;2239;48.152;11.584;2022-09-29T10:47:32;10.70;99.90
4453;DHT22;2239;48.152;11.584;2022-09-29T10:50:20;10.60;99.90
4453;DHT22;2239;48.152;11.584;2022-09-29T10:52:55;10.60;99.90
4453;DHT22;2239;48.152;11.584;2022-09-29T10:55:32;10.50;99.90
4453;DHT22;2239;48.152;11.584;2022-09-29T10:58:34;10.60;99.90
4453;DHT22;2239;48.152;11.584;2022-09-29T11:01:07;10.60;99.90
4453;DHT22;2239;48.152;11.584;2022-09-29T11:03:37;10.60;99.90
4453;DHT22;2239;48.152;11.584;2022-09-29T11:08:32;10.70;99.90
4453;DHT22;2239;48.152;11.584;2022-09-29T11:11:20;10.80;99.90
4453;DHT22;2239;48.152;11.584;2022-09-29T11:13:47;10.90;99.90
4453;DHT22;2239;48.152;11.584;2022-09-29T11:16:15;11.00;99.90
4453;DHT22;2239;48.152;11.584;2022-09-29T11:18:44;11.10;99.90
4453;DHT22;2239;48.152;11.584;2022-09-29T11:26:45;11.30;99.90
4453;DHT22;2239;48.152;11.584;2022-09-29T11:29:30;11.30;99.90
4453;DHT22;2239;48.152;11.584;2022-09-29T11:48:45;11.60;99.90
4453;DHT22;2239;48.152;11.584;2022-09-29T11:51:37;11.70;99.90
4453;DHT22;2239;48.152;11.584;2022-09-29T11:57:16;11.80;99.90
4453;DHT22;2239;48.152;11.584;2022-09-29T12:02:50;11.80;99.90
4453;DHT22;2239;48.152;11.584;2022-09-29T12:08:29;11.90;99.90
4453;DHT22;2239;48.152;11.584;2022-09-29T12:11:06;11.90;99.90
4453;DHT22;2239;48.152;11.584;2022-09-29T12:13:59;11.90;99.90
4453;DHT22;2239;48.152;11.584;2022-09-29T12:16:31;11.90;99.90
4453;DHT22;2239;48.152;11.584;2022-09-29T12:19:24;11.90;99.90
4453;DHT22;2239;48.152;11.584;2022-09-29T12:21:52;12.00;99.90
4453;DHT22;2239;48.152;11.584;2022-09-29T12:24:21;12.00;99.90
4453;DHT22;2239;48.152;11.584;2022-09-29T12:26:50;11.90;99.90
4453;DHT22;2239;48.152;11.584;2022-09-29T12:29:33;11.90;99.90
4453;DHT22;2239;48.152;11.584;2022-09-29T12:32:15;11.90;99.90
4453;DHT22;2239;48.152;11.584;2022-09-29T12:34:47;11.90;99.90
4453;DHT22;2239;48.152;11.584;2022-09-29T12:37:33;11.90;99.90
4453;DHT22;2239;48.152;11.584;2022-09-29T12:40:21;11.80;99.90
4453;DHT22;2239;48.152;11.584;2022-09-29T12:43:12;11.80;99.90
4453;DHT22;2239;48.152;11.584;2022-09-29T12:46:05;11.70;99.90
4453;DHT22;2239;48.152;11.584;2022-09-29T12:49:20;11.50;99.90
4453;DHT22;2239;48.152;11.584;2022-09-29T12:51:48;11.50;99.90
4453;DHT22;2239;48.152;11.584;2022-09-29T12:57:16;11.50;99.90
4453;DHT22;2239;48.152;11.584;2022-09-29T12:59:54;11.50;99.90
4453;DHT22;2239;48.152;11.584;2022-09-29T13:16:20;11.50;99.90
4453;DHT22;2239;48.152;11.584;2022-09-29T13:27:21;11.50;99.90
4453;DHT22;2239;48.152;11.584;2022-09-29T13:32:27;11.40;99.90
4453;DHT22;2239;48.152;11.584;2022-09-29T13:34:56;11.40;99.90
4453;DHT22;2239;48.152;11.584;2022-09-29T13:37:25;11.30;99.90
4453;DHT22;2239;48.152;11.584;2022-09-29T13:39:57;11.10;99.90
4453;DHT22;2239;48.152;11.584;2022-09-29T13:42:45;11.20;99.90
4453;DHT22;2239;48.152;11.584;2022-09-29T13:47:58;11.40;99.90
4453;DHT22;2239;48.152;11.584;2022-09-29T13:50:43;11.30;99.90
4453;DHT22;2239;48.152;11.584;2022-09-29T13:53:36;11.40;99.90
4453;DHT22;2239;48.152;11.584;2022-09-29T13:58:32;11.30;99.90
4453;DHT22;2239;48.152;11.584;2022-09-29T14:01:08;11.30;99.90
4453;DHT22;2239;48.152;11.584;2022-09-29T14:03:42;11.30;99.90
4453;DHT22;2239;48.152;11.584;2022-09-29T14:06:16;11.20;99.90
4453;DHT22;2239;48.152;11.584;2022-09-29T14:09:12;11.20;99.90
4453;DHT22;2239;48.152;11.584;2022-09-29T14:11:46;11.20;99.90
4453;DHT22;2239;48.152;11.584;2022-09-29T14:16:46;11.20;99.90
4453;DHT22;2239;48.152;11.584;2022-09-29T14:21:56;11.30;99.90
4453;DHT22;2239;48.152;11.584;2022-09-29T14:27:26;11.30;99.90
4453;DHT22;2239;48.152;11.584;2022-09-29T14:30:08;11.30;99.90
4453;DHT22;2239;48.152;11.584;2022-09-29T14:35:39;11.20;99.90
4453;DHT22;2239;48.152;11.584;2022-09-29T14:38:24;11.10;99.90
4453;DHT22;2239;48.152;11.584;2022-09-29T14:41:25;11.10;99.90
4453;DHT22;2239;48.152;11.584;2022-09-29T14:44:04;11.00;99.90
4453;DHT22;2239;48.152;11.584;2022-09-29T14:50:02;10.80;99.90
4453;DHT22;2239;48.152;11.584;2022-09-29T14:59:05;10.40;99.90
4453;DHT22;2239;48.152;11.584;2022-09-29T15:01:37;10.40;99.90
4453;DHT22;2239;48.152;11.584;2022-09-29T15:04:14;10.40;99.90
4453;DHT22;2239;48.152;11.584;2022-09-29T15:06:48;10.40;99.90
4453;DHT22;2239;48.152;11.584;2022-09-29T15:09:19;10.50;99.90
4453;DHT22;2239;48.152;11.584;2022-09-29T15:11:53;10.40;99.90
4453;DHT22;2239;48.152;11.584;2022-09-29T15:14:24;10.40;99.90
4453;DHT22;2239;48.152;11.584;2022-09-29T15:27:32;9.90;99.90
4453;DHT22;2239;48.152;11.584;2022-09-29T15:29:58;9.90;99.90
4453;DHT22;2239;48.152;11.584;2022-09-29T15:32:29;10.00;99.90
4453;DHT22;2239;48.152;11.584;2022-09-29T15:35:02;10.00;99.90
4453;DHT22;2239;48.152;11.584;2022-09-29T15:40:20;9.90;99.90
4453;DHT22;2239;48.152;11.584;2022-09-29T15:42:46;9.90;99.90
4453;DHT22;2239;48.152;11.584;2022-09-29T15:45:26;10.00;99.90
4453;DHT22;2239;48.152;11.584;2022-09-29T15:48:05;10.10;99.90
4453;DHT22;2239;48.152;11.584;2022-09-29T15:50:40;10.20;99.90
4453;DHT22;2239;48.152;11.584;2022-09-29T15:53:07;10.20;99.90
4453;DHT22;2239;48.152;11.584;2022-09-29T15:55:33;10.30;99.90
4453;DHT22;2239;48.152;11.584;2022-09-29T15:57:59;10.30;99.90
4453;DHT22;2239;48.152;11.584;2022-09-29T16:05:41;10.20;99.90
4453;DHT22;2239;48.152;11.584;2022-09-29T16:08:22;10.10;99.90
4453;DHT22;2239;48.152;11.584;2022-09-29T16:11:17;10.10;99.90
4453;DHT22;2239;48.152;11.584;2022-09-29T16:13:49;10.10;99.90
4453;DHT22;2239;48.152;11.584;2022-09-29T16:16:15;10.10;99.90
4453;DHT22;2239;48.152;11.584;2022-09-29T16:18:46;10.20;99.90
4453;DHT22;2239;48.152;11.584;2022-09-29T16:21:18;10.20;99.90
4453;DHT22;2239;48.152;11.584;2022-09-29T16:31:41;9.90;99.90
4453;DHT22;2239;48.152;11.584;2022-09-29T16:36:51;10.00;99.90
4453;DHT22;2239;48.152;11.584;2022-09-29T16:39:20;10.00;99.90
4453;DHT22;2239;48.152;11.584;2022-09-29T16:41:48;10.00;99.90
4453;DHT22;2239;48.152;11.584;2022-09-29T16:46:49;10.00;99.90
4453;DHT22;2239;48.152;11.584;2022-09-29T16:49:22;10.00;99.90
4453;DHT22;2239;48.152;11.584;2022-09-29T16:51:51;10.00;99.90
4453;DHT22;2239;48.152;11.584;2022-09-29T16:54:39;9.90;99.90
4453;DHT22;2239;48.152;11.584;2022-09-29T16:57:20;9.90;99.90
4453;DHT22;2239;48.152;11.584;2022-09-29T16:59:49;9.90;99.90
4453;DHT22;2239;48.152;11.584;2022-09-29T17:02:16;9.90;99.90
4453;DHT22;2239;48.152;11.584;2022-09-29T17:04:42;9.90;99.90
4453;DHT22;2239;48.152;11.584;2022-09-29T17:07:12;10.00;99.90
4453;DHT22;2239;48.152;11.584;2022-09-29T17:09:39;10.10;99.90
4453;DHT22;2239;48.152;11.584;2022-09-29T17:12:12;10.20;99.90
4453;DHT22;2239;48.152;11.584;2022-09-29T17:14:38;10.20;99.90
4453;DHT22;2239;48.152;11.584;2022-09-29T17:17:04;10.20;99.90
4453;DHT22;2239;48.152;11.584;2022-09-29T17:19:29;10.10;99.90
4453;DHT22;2239;48.152;11.584;2022-09-29T17:21:55;10.00;99.90
4453;DHT22;2239;48.152;11.584;2022-09-29T17:24:21;9.90;99.90
4453;DHT22;2239;48.152;11.584;2022-09-29T17:26:47;9.90;99.90
4453;DHT22;2239;48.152;11.584;2022-09-29T17:29:32;9.90;99.90
4453;DHT22;2239;48.152;11.584;2022-09-29T17:31:57;9.80;99.90
4453;DHT22;2239;48.152;11.584;2022-09-29T17:34:25;9.70;99.90
4453;DHT22;2239;48.152;11.584;2022-09-29T17:36:54;9.70;99.90
4453;DHT22;2239;48.152;11.584;2022-09-29T17:39:20;9.60;99.90
4453;DHT22;2239;48.152;11.584;2022-09-29T17:41:46;9.60;99.90
4453;DHT22;2239;48.152;11.584;2022-09-29T17:44:14;9.60;99.90
4453;DHT22;2239;48.152;11.584;2022-09-29T17:46:39;9.60;99.90
4453;DHT22;2239;48.152;11.584;2022-09-29T17:49:10;9.60;99.90
4453;DHT22;2239;48.152;11.584;2022-09-29T17:51:36;9.60;99.90
4453;DHT22;2239;48.152;11.584;2022-09-29T17:54:01;9.50;99.90
4453;DHT22;2239;48.152;11.584;2022-09-29T17:56:27;9.50;99.90
4453;DHT22;2239;48.152;11.584;2022-09-29T17:58:59;9.50;99.90
4453;DHT22;2239;48.152;11.584;2022-09-29T18:01:27;9.50;99.90
4453;DHT22;2239;48.152;11.584;2022-09-29T18:03:53;9.50;99.90
4453;DHT22;2239;48.152;11.584;2022-09-29T18:06:22;9.50;99.90
4453;DHT22;2239;48.152;11.584;2022-09-29T18:08:50;9.40;99.90
4453;DHT22;2239;48.152;11.584;2022-09-29T18:11:18;9.40;99.90
4453;DHT22;2239;48.152;11.584;2022-09-29T18:13:44;9.50;99.90
4453;DHT22;2239;48.152;11.584;2022-09-29T18:16:18;9.40;99.90
4453;DHT22;2239;48.152;11.584;2022-09-29T18:18:45;9.40;99.90
4453;DHT22;2239;48.152;11.584;2022-09-29T18:21:11;9.40;99.90
4453;DHT22;2239;48.152;11.584;2022-09-29T18:23:37;9.40;99.90
4453;DHT22;2239;48.152;11.584;2022-09-29T18:26:04;9.40;99.90
4453;DHT22;2239;48.152;11.584;2022-09-29T18:28:30;9.40;99.90
4453;DHT22;2239;48.152;11.584;2022-09-29T18:31:23;9.40;99.90
4453;DHT22;2239;48.152;11.584;2022-09-29T18:33:49;9.40;99.90
4453;DHT22;2239;48.152;11.584;2022-09-29T18:36:15;9.40;99.90
4453;DHT22;2239;48.152;11.584;2022-09-29T18:38:41;9.30;99.90
4453;DHT22;2239;48.152;11.584;2022-09-29T18:41:11;9.30;99.90
4453;DHT22;2239;48.152;11.584;2022-09-29T18:43:37;9.30;99.90
4453;DHT22;2239;48.152;11.584;2022-09-29T18:46:03;9.30;99.90
4453;DHT22;2239;48.152;11.584;2022-09-29T18:48:29;9.30;99.90
4453;DHT22;2239;48.152;11.584;2022-09-29T18:50:55;9.30;99.90
4453;DHT22;2239;48.152;11.584;2022-09-29T18:53:21;9.20;99.90
4453;DHT22;2239;48.152;11.584;2022-09-29T18:55:48;9.20;99.90
4453;DHT22;2239;48.152;11.584;2022-09-29T18:58:16;9.20;99.90
4453;DHT22;2239;48.152;11.584;2022-09-29T19:00:44;9.20;99.90
4453;DHT22;2239;48.152;11.584;2022-09-29T19:03:11;9.20;99.90
4453;DHT22;2239;48.152;11.584;2022-09-29T19:05:40;9.20;99.90
4453;DHT22;2239;48.152;11.584;2022-09-29T19:08:06;9.20;99.90
4453;DHT22;2239;48.152;11.584;2022-09-29T19:10:34;9.20;99.90
4453;DHT22;2239;48.152;11.584;2022-09-29T19:13:02;9.10;99.90
4453;DHT22;2239;48.152;11.584;2022-09-29T19:15:29;9.10;99.90
4453;DHT22;2239;48.152;11.584;2022-09-29T19:17:55;9.10;99.90
4453;DHT22;2239;48.152;11.584;2022-09-29T19:20:26;9.00;99.90